KOVL

Olivia Regional Airport

Olivia, Minnesota, USA
METAR KOVL 181115Z AUTO 16006KT 10SM CLR 01/M01 A3031 RMK AO2
Observed Flight Rules
Oct-18 @ 11:15 UTC (15 minutes ago) Visual Flight Rules
Wind Visibility Clouds
160° at 6 knots 10 miles
  • Clear skies
Temperatures Readings
Current 1°C / 34°F
Dewpoint -1°C / 30°F
Humidity 87%
Altimeter 30.31" Hg
Pressure 1026 hPa
Elevation 328
METAR KOVL 181115Z AUTO 16006KT 10SM CLR 01/M01 A3031 RMK AO2
Observed Flight Rules
Oct-18 @ 11:15 UTC
(15 minutes ago)
VFR
Wind Visibility
160° at 6 knots 10 miles
Clouds
  • Clear skies
Temperature Dewpoint
1°C / 34°F -1°C / 30°F
Humidity Altimeter Pressure
87% 30.31" Hg 1026 hPa